createdAt,value
2019-01-06T00:00:03.841Z,6.00
2019-01-06T00:02:40.818Z,6.03
2019-01-06T00:05:24.791Z,6.30
2019-01-06T00:08:15.448Z,6.87
2019-01-06T00:11:02.606Z,6.17
2019-01-06T00:13:49.487Z,6.47
2019-01-06T00:16:35.168Z,6.80
2019-01-06T00:19:22.218Z,7.10
2019-01-06T00:22:03.501Z,6.27
2019-01-06T00:24:40.755Z,7.50
2019-01-06T00:27:28.974Z,7.00
2019-01-06T00:30:19.673Z,7.27
2019-01-06T00:33:17.665Z,6.77
2019-01-06T00:36:08.906Z,7.17
2019-01-06T00:38:52.764Z,6.30
2019-01-06T00:41:37.425Z,7.50
2019-01-06T00:44:24.538Z,6.57
2019-01-06T00:47:20.031Z,5.97
2019-01-06T00:50:23.337Z,6.67
2019-01-06T00:53:30.022Z,6.83
2019-01-06T00:56:25.584Z,7.70
2019-01-06T00:59:25.925Z,7.73
2019-01-06T01:02:19.464Z,7.73
2019-01-06T01:05:06.292Z,7.43
2019-01-06T01:08:04.116Z,7.30
2019-01-06T01:10:51.264Z,8.53
2019-01-06T01:13:38.973Z,7.77
2019-01-06T01:16:26.833Z,8.80
2019-01-06T01:19:17.891Z,7.43
2019-01-06T01:22:00.188Z,7.60
2019-01-06T01:24:51.533Z,6.43
2019-01-06T01:27:36.018Z,5.80
2019-01-06T01:30:23.953Z,5.77
2019-01-06T01:33:17.812Z,6.67
2019-01-06T01:36:04.731Z,6.20
2019-01-06T01:39:05.133Z,6.43
2019-01-06T01:42:02.295Z,5.87
2019-01-06T01:45:08.870Z,6.60
2019-01-06T01:48:06.293Z,5.40
2019-01-06T01:51:00.482Z,5.60
2019-01-06T01:53:46.144Z,5.43
2019-01-06T01:56:32.893Z,4.90
2019-01-06T01:59:30.050Z,5.20
2019-01-06T02:02:21.031Z,5.27
2019-01-06T02:05:07.948Z,4.90
2019-01-06T02:07:58.160Z,6.17
2019-01-06T02:11:04.877Z,6.30
2019-01-06T02:13:58.976Z,6.10
2019-01-06T02:16:46.900Z,5.90
2019-01-06T02:19:35.140Z,5.37
2019-01-06T02:22:19.524Z,5.53
2019-01-06T02:25:07.714Z,5.53
2019-01-06T02:27:55.038Z,5.97
2019-01-06T02:30:43.991Z,6.33
2019-01-06T02:33:46.685Z,6.73
2019-01-06T02:36:45.065Z,5.53
2019-01-06T02:39:36.035Z,5.73
2019-01-06T02:42:31.729Z,6.90
2019-01-06T02:45:19.919Z,6.40
2019-01-06T02:48:07.045Z,6.90
2019-01-06T02:50:51.954Z,6.37
2019-01-06T02:53:32.963Z,6.63
2019-01-06T02:56:19.772Z,6.20
2019-01-06T02:59:06.144Z,5.37
2019-01-06T03:01:52.903Z,5.67
2019-01-06T03:04:43.894Z,5.83
2019-01-06T03:07:29.129Z,5.83
2019-01-06T03:10:26.384Z,5.37
2019-01-06T03:13:32.732Z,4.40
2019-01-06T03:16:20.944Z,4.20
2019-01-06T03:19:24.621Z,4.97
2019-01-06T03:22:18.721Z,4.13
2019-01-06T03:25:07.358Z,4.43
2019-01-06T03:27:56.421Z,4.27
2019-01-06T03:30:40.037Z,5.20
2019-01-06T03:33:21.286Z,4.00
2019-01-06T03:36:09.484Z,3.97
2019-01-06T03:38:56.643Z,4.53
2019-01-06T03:41:43.449Z,3.47
2019-01-06T03:44:45.121Z,4.80
2019-01-06T03:47:32.187Z,3.87
2019-01-06T03:50:19.025Z,4.47
2019-01-06T03:53:19.830Z,4.30
2019-01-06T03:56:10.858Z,4.40
2019-01-06T03:59:02.083Z,5.03
2019-01-06T04:01:56.531Z,4.87
2019-01-06T04:05:03.192Z,5.47
2019-01-06T04:07:54.375Z,5.23
2019-01-06T04:10:41.485Z,5.00
2019-01-06T04:13:30.504Z,5.33
2019-01-06T04:16:20.007Z,5.47
2019-01-06T04:19:08.605Z,5.13
2019-01-06T04:21:56.239Z,5.47
2019-01-06T04:24:52.216Z,6.27
2019-01-06T04:27:40.408Z,5.07
2019-01-06T04:30:35.428Z,5.77
2019-01-06T04:33:22.461Z,5.70
2019-01-06T04:36:13.718Z,5.47
2019-01-06T04:39:00.658Z,5.53
2019-01-06T04:42:00.984Z,5.33
2019-01-06T04:44:47.794Z,5.17
2019-01-06T04:47:42.054Z,5.73
2019-01-06T04:50:45.753Z,5.53
2019-01-06T04:53:33.962Z,5.93
2019-01-06T04:56:21.185Z,6.33
2019-01-06T04:59:09.430Z,7.17
2019-01-06T05:01:56.845Z,7.30
2019-01-06T05:04:45.066Z,6.97
2019-01-06T05:07:32.298Z,7.17
2019-01-06T05:10:26.789Z,7.20
2019-01-06T05:13:21.037Z,7.67
2019-01-06T05:16:21.458Z,7.10
2019-01-06T05:19:15.783Z,7.37
2019-01-06T05:22:01.415Z,7.00
2019-01-06T05:24:48.557Z,8.53
2019-01-06T05:27:51.819Z,7.97
2019-01-06T05:30:43.393Z,7.60
2019-01-06T05:33:38.220Z,7.70
2019-01-06T05:36:23.562Z,8.47
2019-01-06T05:39:14.830Z,7.63
2019-01-06T05:42:06.071Z,8.00
2019-01-06T05:45:06.461Z,7.23
2019-01-06T05:47:54.663Z,8.13
2019-01-06T05:50:47.896Z,6.77
2019-01-06T05:53:51.193Z,8.00
2019-01-06T05:56:29.093Z,7.40
2019-01-06T05:59:17.277Z,6.53
2019-01-06T06:02:05.570Z,12.57
2019-01-06T06:05:01.433Z,9.13
2019-01-06T06:07:54.805Z,6.43
2019-01-06T06:10:48.449Z,6.30
2019-01-06T06:13:29.446Z,6.33
2019-01-06T06:16:16.545Z,6.17
2019-01-06T06:19:14.109Z,5.73
2019-01-06T06:22:02.312Z,5.80
2019-01-06T06:24:59.868Z,5.73
2019-01-06T06:27:51.118Z,5.50
2019-01-06T06:30:40.454Z,7.03
2019-01-06T06:33:26.834Z,6.40
2019-01-06T06:36:24.933Z,5.40
2019-01-06T06:39:11.798Z,4.73
2019-01-06T06:42:12.477Z,5.57
2019-01-06T06:45:00.671Z,5.90
2019-01-06T06:47:47.683Z,6.03
2019-01-06T06:50:34.482Z,5.43
2019-01-06T06:53:24.578Z,4.90
2019-01-06T06:56:21.615Z,5.80
2019-01-06T06:59:11.145Z,5.43
2019-01-06T07:03:07.580Z,5.23
2019-01-06T07:06:13.999Z,5.23
2019-01-06T07:09:11.135Z,6.00
2019-01-06T07:12:01.192Z,5.90
2019-01-06T07:14:50.068Z,5.40
2019-01-06T07:18:09.757Z,5.73
2019-01-06T07:21:06.770Z,6.13
2019-01-06T07:23:53.695Z,5.33
2019-01-06T07:26:36.369Z,5.23
2019-01-06T07:29:24.599Z,4.63
2019-01-06T07:32:31.541Z,4.70
2019-01-06T07:35:18.812Z,5.13
2019-01-06T07:38:05.658Z,3.97
2019-01-06T07:40:56.805Z,3.83
2019-01-06T07:43:39.572Z,4.07
2019-01-06T07:46:30.857Z,3.77
2019-01-06T07:49:17.668Z,3.63
2019-01-06T07:52:12.057Z,3.03
2019-01-06T07:55:05.066Z,3.33
2019-01-06T07:57:59.107Z,3.07
2019-01-06T08:00:50.379Z,3.10
2019-01-06T08:03:39.591Z,3.20
2019-01-06T08:06:24.116Z,2.83
2019-01-06T08:09:18.539Z,2.80
2019-01-06T08:12:05.668Z,2.80
2019-01-06T08:14:55.861Z,3.43
2019-01-06T08:17:56.298Z,2.83
2019-01-06T08:20:57.219Z,2.80
2019-01-06T08:23:44.787Z,0.80
2019-01-06T08:26:45.881Z,0.80
2019-01-06T08:29:42.403Z,0.70
2019-01-06T08:32:21.542Z,0.70
2019-01-06T08:35:15.762Z,1.10
2019-01-06T08:38:03.091Z,0.77
2019-01-06T08:40:50.327Z,0.60
2019-01-06T08:43:53.054Z,0.60
2019-01-06T08:46:40.084Z,0.77
2019-01-06T08:49:37.825Z,1.13
2019-01-06T08:52:32.351Z,0.50
2019-01-06T08:55:19.897Z,0.80
2019-01-06T08:58:08.155Z,0.93
2019-01-06T09:00:56.501Z,0.60
2019-01-06T09:03:50.814Z,0.60
2019-01-06T09:06:57.463Z,0.97
2019-01-06T09:09:45.732Z,0.83
2019-01-06T09:12:34.331Z,0.73
2019-01-06T09:15:31.545Z,1.17
2019-01-06T09:18:32.321Z,1.63
2019-01-06T09:21:19.156Z,2.60
2019-01-06T09:24:07.360Z,1.70
2019-01-06T09:26:55.568Z,1.50
2019-01-06T09:29:46.344Z,1.70
2019-01-06T09:32:33.662Z,1.20
2019-01-06T09:35:20.902Z,1.20
2019-01-06T09:38:07.771Z,1.77
2019-01-06T09:41:05.537Z,1.93
2019-01-06T09:43:59.904Z,2.43
2019-01-06T09:46:48.132Z,1.70
2019-01-06T09:49:35.078Z,1.67
2019-01-06T09:52:29.748Z,1.63
2019-01-06T09:55:17.420Z,2.40
2019-01-06T09:58:14.763Z,2.47
2019-01-06T10:01:04.235Z,2.70
2019-01-06T10:04:08.065Z,2.30
2019-01-06T10:07:06.016Z,1.30
2019-01-06T10:09:57.322Z,1.07
2019-01-06T10:12:44.448Z,1.67
2019-01-06T10:15:25.079Z,2.47
2019-01-06T10:18:16.122Z,1.30
2019-01-06T10:21:03.104Z,1.03
2019-01-06T10:23:57.557Z,2.23
2019-01-06T10:26:52.174Z,2.10
2019-01-06T10:29:57.648Z,1.40
2019-01-06T10:32:51.256Z,1.40
2019-01-06T10:35:38.151Z,2.33
2019-01-06T10:38:41.881Z,1.40
2019-01-06T10:41:33.182Z,1.50
2019-01-06T10:44:17.190Z,1.47
2019-01-06T10:47:04.589Z,1.50
2019-01-06T10:49:51.660Z,1.47
2019-01-06T10:52:50.998Z,1.77
2019-01-06T10:55:37.857Z,1.50
2019-01-06T10:58:37.121Z,1.80
2019-01-06T11:01:24.128Z,2.53
2019-01-06T11:04:30.659Z,2.10
2019-01-06T11:07:27.475Z,1.53
2019-01-06T11:10:26.632Z,2.80
2019-01-06T11:13:19.613Z,1.80
2019-01-06T11:16:06.488Z,3.77
2019-01-06T11:19:03.870Z,1.67
2019-01-06T11:21:52.437Z,2.33
2019-01-06T11:24:49.862Z,1.90
2019-01-06T11:27:39.265Z,1.27
2019-01-06T11:30:31.606Z,1.30
2019-01-06T11:33:23.869Z,4.17
2019-01-06T11:36:10.783Z,4.13
2019-01-06T11:39:11.015Z,2.40
2019-01-06T11:42:14.287Z,1.83
2019-01-06T11:45:02.698Z,1.43
2019-01-06T11:48:03.221Z,2.23
2019-01-06T11:51:01.083Z,3.23
2019-01-06T11:53:48.684Z,1.60
2019-01-06T11:56:52.324Z,1.73
2019-01-06T11:59:40.509Z,1.47
2019-01-06T12:05:24.644Z,1.30
2019-01-06T12:08:14.950Z,1.17
2019-01-06T12:11:19.454Z,1.07
2019-01-06T12:14:23.502Z,1.23
2019-01-06T12:17:30.628Z,1.80
2019-01-06T12:20:18.516Z,1.23
2019-01-06T12:23:19.578Z,1.10
2019-01-06T12:26:17.084Z,1.20
2019-01-06T12:29:17.125Z,12.47
2019-01-06T12:32:08.460Z,2.93
2019-01-06T12:34:57.166Z,2.13
2019-01-06T12:38:02.235Z,1.50
2019-01-06T12:40:46.416Z,3.00
2019-01-06T12:43:54.789Z,2.03
2019-01-06T12:46:41.562Z,1.40
2019-01-06T12:49:29.783Z,1.53
2019-01-06T12:52:33.654Z,1.60
2019-01-06T12:55:38.833Z,2.90
2019-01-06T12:58:25.455Z,1.70
2019-01-06T13:01:12.793Z,2.43
2019-01-06T13:04:02.148Z,2.40
2019-01-06T13:06:47.212Z,2.00
2019-01-06T13:09:36.052Z,8.10
2019-01-06T13:12:33.671Z,4.17
2019-01-06T13:15:24.931Z,4.43
2019-01-06T13:18:11.729Z,3.10
2019-01-06T13:20:59.952Z,1.33
2019-01-06T13:23:53.566Z,1.97
2019-01-06T13:26:58.465Z,1.40
2019-01-06T13:29:53.366Z,1.40
2019-01-06T13:32:41.532Z,1.90
2019-01-06T13:35:46.301Z,3.67
2019-01-06T13:38:46.624Z,6.40
2019-01-06T13:41:34.026Z,1.50
2019-01-06T13:44:34.330Z,1.63
2019-01-06T13:47:21.298Z,2.53
2019-01-06T13:50:19.055Z,2.00
2019-01-06T13:56:00.733Z,1.87
2019-01-06T13:58:52.208Z,1.23
2019-01-06T14:01:40.460Z,1.17
2019-01-06T14:04:31.773Z,1.60
2019-01-06T14:07:23.232Z,1.20
2019-01-06T14:10:26.577Z,1.37
2019-01-06T14:13:05.621Z,1.47
2019-01-06T14:15:54.533Z,1.10
2019-01-06T14:18:41.815Z,1.30
2019-01-06T14:21:30.400Z,2.13
2019-01-06T14:24:18.960Z,2.33
2019-01-06T14:27:19.624Z,2.00
2019-01-06T14:30:09.538Z,1.40
2019-01-06T14:32:56.689Z,1.43
2019-01-06T14:35:44.970Z,3.33
2019-01-06T14:38:39.606Z,17.63
2019-01-06T14:41:20.669Z,2.87
2019-01-06T14:44:07.697Z,2.60
2019-01-06T14:46:54.825Z,2.23
2019-01-06T14:49:43.732Z,3.37
2019-01-06T14:52:30.535Z,3.40
2019-01-06T14:55:15.788Z,2.20
2019-01-06T14:58:04.148Z,3.60
2019-01-06T15:00:50.999Z,4.43
2019-01-06T15:03:42.087Z,4.13
2019-01-06T15:06:36.453Z,5.67
2019-01-06T15:09:23.817Z,3.93
2019-01-06T15:12:15.229Z,4.77
2019-01-06T15:15:22.196Z,8.00
2019-01-06T15:18:10.548Z,7.90
2019-01-06T15:20:58.486Z,4.30
2019-01-06T15:23:40.368Z,6.90
2019-01-06T15:26:28.579Z,4.83
2019-01-06T15:29:19.578Z,3.93
2019-01-06T15:32:26.280Z,7.80
2019-01-06T15:35:14.611Z,4.93
2019-01-06T15:38:11.969Z,5.87
2019-01-06T15:41:06.384Z,4.10
2019-01-06T15:43:53.309Z,4.50
2019-01-06T15:46:41.741Z,5.20
2019-01-06T15:49:30.640Z,5.57
2019-01-06T15:52:18.837Z,5.37
2019-01-06T15:55:06.321Z,3.93
2019-01-06T15:57:53.192Z,4.87
2019-01-06T16:00:50.344Z,4.27
2019-01-06T16:03:38.548Z,5.07
2019-01-06T16:06:26.759Z,4.63
2019-01-06T16:09:24.315Z,9.43
2019-01-06T16:12:11.487Z,7.57
2019-01-06T16:14:58.677Z,6.90
2019-01-06T16:17:39.270Z,9.00
2019-01-06T16:20:46.056Z,4.13
2019-01-06T16:23:46.301Z,7.00
2019-01-06T16:26:35.607Z,6.27
2019-01-06T16:29:26.931Z,5.50
2019-01-06T16:32:15.450Z,5.60
2019-01-06T16:35:09.845Z,6.50
2019-01-06T16:38:03.640Z,4.83
2019-01-06T16:40:58.089Z,5.87
2019-01-06T16:43:55.612Z,6.00
2019-01-06T16:46:42.498Z,7.33
2019-01-06T16:49:26.440Z,6.70
2019-01-06T16:52:17.672Z,5.13
2019-01-06T16:55:00.339Z,6.03
2019-01-06T16:57:53.596Z,5.10
2019-01-06T17:00:40.681Z,6.00
2019-01-06T17:03:31.761Z,4.63
2019-01-06T17:06:18.610Z,5.47
2019-01-06T17:09:06.070Z,7.10
2019-01-06T17:12:01.369Z,5.97
2019-01-06T17:14:58.950Z,8.07
2019-01-06T17:17:59.245Z,6.53
2019-01-06T17:20:46.541Z,7.57
2019-01-06T17:23:33.639Z,8.27
2019-01-06T17:26:26.070Z,8.50
2019-01-06T17:29:32.700Z,8.67
2019-01-06T17:32:20.958Z,8.67
2019-01-06T17:35:18.525Z,9.33
2019-01-06T17:38:12.160Z,11.80
2019-01-06T17:41:03.221Z,12.27
2019-01-06T17:44:03.397Z,11.10
2019-01-06T17:46:58.235Z,13.60
2019-01-06T17:49:45.193Z,10.30
2019-01-06T17:52:36.262Z,10.20
2019-01-06T17:55:34.740Z,10.37
2019-01-06T17:58:12.279Z,11.03
2019-01-06T18:01:17.167Z,11.20
2019-01-06T18:04:04.441Z,10.37
2019-01-06T18:06:51.818Z,10.17
2019-01-06T18:09:52.520Z,8.07
2019-01-06T18:12:43.786Z,6.97
2019-01-06T18:15:32.187Z,6.43
2019-01-06T18:18:24.369Z,6.10
2019-01-06T18:21:15.397Z,5.70
2019-01-06T18:24:04.168Z,5.10
2019-01-06T18:26:52.436Z,5.60
2019-01-06T18:29:39.482Z,4.40
2019-01-06T18:32:36.941Z,5.53
2019-01-06T18:35:24.136Z,4.67
2019-01-06T18:38:16.000Z,5.13
2019-01-06T18:41:02.627Z,4.07
2019-01-06T18:44:00.130Z,4.30
2019-01-06T18:46:48.533Z,4.87
2019-01-06T18:49:40.020Z,5.17
2019-01-06T18:52:20.741Z,5.43
2019-01-06T18:55:03.064Z,4.53
2019-01-06T18:58:10.461Z,4.63
2019-01-06T19:00:58.785Z,4.23
2019-01-06T19:03:55.730Z,5.10
2019-01-06T19:06:43.392Z,5.57
2019-01-06T19:09:35.302Z,5.70
2019-01-06T19:12:25.572Z,5.10
2019-01-06T19:15:24.974Z,5.10
2019-01-06T19:18:12.245Z,5.17
2019-01-06T19:21:06.507Z,5.57
2019-01-06T19:24:00.763Z,5.40
2019-01-06T19:26:51.182Z,5.40
2019-01-06T19:29:39.780Z,5.10
2019-01-06T19:32:28.001Z,6.60
2019-01-06T19:35:19.348Z,7.50
2019-01-06T19:38:01.225Z,4.90
2019-01-06T19:40:48.586Z,6.00
2019-01-06T19:43:37.762Z,5.73
2019-01-06T19:46:26.662Z,5.77
2019-01-06T19:49:24.366Z,5.03
2019-01-06T19:52:15.999Z,5.70
2019-01-06T19:55:04.224Z,5.30
2019-01-06T19:57:52.402Z,5.67
2019-01-06T20:00:36.506Z,5.40
2019-01-06T20:03:24.756Z,6.70
2019-01-06T20:06:15.865Z,5.43
2019-01-06T20:09:07.073Z,7.60
2019-01-06T20:12:02.466Z,6.27
2019-01-06T20:15:05.822Z,6.37
2019-01-06T20:18:13.179Z,5.60
2019-01-06T20:21:00.341Z,6.20
2019-01-06T20:23:50.055Z,6.60
2019-01-06T20:26:42.903Z,6.27
2019-01-06T20:29:29.054Z,7.07
2019-01-06T20:32:16.684Z,7.10
2019-01-06T20:35:03.859Z,6.07
2019-01-06T20:37:51.307Z,5.97
2019-01-06T20:40:40.136Z,6.47
2019-01-06T20:43:31.609Z,7.83
2019-01-06T20:46:37.574Z,6.97
2019-01-06T20:49:24.535Z,6.53
2019-01-06T20:52:19.085Z,7.30
2019-01-06T20:55:09.279Z,7.37
2019-01-06T20:57:58.540Z,5.53
2019-01-06T21:00:48.438Z,7.63
2019-01-06T21:03:49.964Z,6.70
2019-01-06T21:06:42.988Z,6.73
2019-01-06T21:09:43.596Z,7.00
2019-01-06T21:12:53.856Z,5.90
2019-01-06T21:15:47.642Z,8.27
2019-01-06T21:18:35.178Z,7.50
2019-01-06T21:21:15.885Z,7.53
2019-01-06T21:24:16.682Z,7.43
2019-01-06T21:27:03.675Z,6.93
2019-01-06T21:29:47.047Z,6.83
2019-01-06T21:32:41.578Z,7.33
2019-01-06T21:35:29.828Z,8.23
2019-01-06T21:38:24.075Z,8.10
2019-01-06T21:41:13.847Z,8.17
2019-01-06T21:44:11.120Z,6.67
2019-01-06T21:46:59.378Z,8.27
2019-01-06T21:49:41.576Z,6.97
2019-01-06T21:52:29.946Z,6.47
2019-01-06T21:55:29.483Z,7.60
2019-01-06T21:58:27.835Z,6.73
2019-01-06T22:01:19.419Z,6.70
2019-01-06T22:04:23.161Z,6.83
2019-01-06T22:07:14.197Z,7.47
2019-01-06T22:10:17.571Z,8.77
2019-01-06T22:13:18.159Z,7.17
2019-01-06T22:16:06.409Z,7.50
2019-01-06T22:19:03.632Z,7.67
2019-01-06T22:21:52.335Z,7.50
2019-01-06T22:24:55.883Z,8.67
2019-01-06T22:27:59.385Z,9.67
2019-01-06T22:30:46.026Z,9.63
2019-01-06T22:33:27.626Z,11.10
2019-01-06T22:36:25.025Z,9.03
2019-01-06T22:39:12.131Z,11.57
2019-01-06T22:41:59.228Z,10.13
2019-01-06T22:44:46.420Z,9.77
2019-01-06T22:47:37.909Z,9.80
2019-01-06T22:50:35.491Z,9.93
2019-01-06T22:53:33.968Z,10.80
2019-01-06T22:56:22.519Z,9.60
2019-01-06T22:59:20.765Z,9.47
2019-01-06T23:02:10.746Z,8.43
2019-01-06T23:05:18.280Z,8.23
2019-01-06T23:08:17.018Z,8.83
2019-01-06T23:11:04.072Z,10.57
2019-01-06T23:13:52.572Z,10.77
2019-01-06T23:16:43.614Z,9.77
2019-01-06T23:19:38.874Z,9.43
2019-01-06T23:22:36.548Z,9.03
2019-01-06T23:25:27.121Z,9.57
2019-01-06T23:28:14.773Z,8.63
2019-01-06T23:30:59.533Z,10.83
2019-01-06T23:33:54.800Z,8.00
2019-01-06T23:36:41.940Z,10.73
2019-01-06T23:39:37.456Z,14.13
2019-01-06T23:42:34.762Z,11.47
2019-01-06T23:45:22.217Z,9.43
2019-01-06T23:48:10.226Z,9.20
2019-01-06T23:51:13.876Z,9.30
2019-01-06T23:54:04.889Z,11.53
2019-01-06T23:56:58.650Z,10.20
